Time;durP1;ratioP1;P1;durP2;ratioP2;P2;SDS_P1;SDS_P2;PMS_P1;PMS_P2;Temp;Humidity;BMP_temperature;BMP_pressure;BME280_temperature;BME280_humidity;BME280_pressure;Samples;Min_cycle;Max_cycle;Signal;HPM_P1;HPM_P2
2023/01/21 00:01:09;;;;;;;0.70;0.70;;;2.80;74.50;;;1.86;62.73;94765.78;4993874;28;20190;-39
2023/01/21 00:03:36;;;;;;;0.80;0.80;;;2.80;74.70;;;1.87;62.66;94770.00;5061089;28;20205;-40
2023/01/21 00:06:04;;;;;;;0.70;0.70;;;2.80;74.90;;;1.86;62.18;94767.56;4992558;28;20557;-39
2023/01/21 00:08:31;;;;;;;0.80;0.80;;;2.80;75.00;;;1.88;62.52;94770.78;4993750;28;20204;-40
2023/01/21 00:11:13;;;;;;;0.80;0.80;;;2.80;74.90;;;1.86;62.23;94768.38;4993974;28;20299;-39
2023/01/21 00:13:42;;;;;;;0.70;0.70;;;2.80;75.00;;;1.86;62.99;94770.94;4994023;28;20610;-39
2023/01/21 00:16:10;;;;;;;0.70;0.70;;;2.90;75.10;;;1.85;62.96;94773.69;4993634;28;20522;-39
2023/01/21 00:18:37;;;;;;;0.80;0.80;;;2.90;75.00;;;1.84;63.08;94774.63;4993636;28;20199;-40
2023/01/21 00:21:05;;;;;;;0.73;0.73;;;2.80;75.00;;;1.85;63.20;94781.44;4993335;28;20190;-39
2023/01/21 00:23:32;;;;;;;0.80;0.80;;;2.80;75.20;;;1.82;63.46;94776.53;4993535;28;20186;-40
2023/01/21 00:26:01;;;;;;;0.82;0.82;;;2.80;75.30;;;1.80;63.65;94771.50;4993454;28;20250;-40
2023/01/21 00:28:31;;;;;;;0.80;0.80;;;2.70;75.50;;;1.79;63.42;94772.47;4993423;28;20213;-39
2023/01/21 00:31:00;;;;;;;0.70;0.70;;;2.70;75.50;;;1.76;63.76;94773.56;5060225;28;20198;-40
2023/01/21 00:33:29;;;;;;;0.70;0.70;;;2.60;75.60;;;1.76;63.90;94773.56;4993422;28;20209;-39
2023/01/21 00:36:00;;;;;;;0.80;0.80;;;2.60;75.70;;;1.78;63.51;94778.59;4993379;28;20221;-39
2023/01/21 00:38:28;;;;;;;0.70;0.70;;;2.70;75.70;;;1.78;64.08;94780.38;4993266;28;20194;-40
2023/01/21 00:41:10;;;;;;;0.80;0.80;;;2.60;75.70;;;1.73;63.98;94784.22;4993157;28;20195;-40
2023/01/21 00:43:38;;;;;;;0.90;0.90;;;2.60;75.90;;;1.72;64.14;94782.56;5060732;28;20620;-35
2023/01/21 00:46:06;;;;;;;0.80;0.80;;;2.60;75.90;;;1.71;64.02;94787.84;4993339;28;20194;-40
2023/01/21 00:48:34;;;;;;;0.70;0.70;;;2.60;75.90;;;1.71;64.01;94780.09;4993126;28;20273;-38
2023/01/21 00:51:01;;;;;;;0.70;0.70;;;2.60;75.90;;;1.71;63.87;94787.84;5060039;28;20211;-38
2023/01/21 00:53:35;;;;;;;0.80;0.80;;;2.50;76.00;;;1.67;63.89;94786.53;4992944;28;20645;-38
2023/01/21 00:56:05;;;;;;;0.70;0.70;;;2.50;76.20;;;1.68;64.36;94788.97;5060214;28;20202;-39
2023/01/21 00:58:33;;;;;;;0.75;0.75;;;2.50;76.20;;;1.65;64.08;94788.41;5059767;28;20189;-37
2023/01/21 01:01:08;;;;;;;0.80;0.80;;;2.50;76.20;;;1.64;64.15;94790.22;4992819;28;20670;-39
2023/01/21 01:03:37;;;;;;;0.80;0.80;;;2.50;76.30;;;1.63;64.39;94790.34;4993087;28;20186;-39
2023/01/21 01:06:09;;;;;;;0.80;0.80;;;2.50;76.20;;;1.64;64.20;94790.22;5059918;28;20206;-40
2023/01/21 01:08:37;;;;;;;0.60;0.60;;;2.50;76.20;;;1.63;64.25;94787.75;5059865;28;20269;-40
2023/01/21 01:11:05;;;;;;;0.70;0.70;;;2.50;76.20;;;1.62;64.30;94791.31;4992758;28;20622;-37
2023/01/21 01:13:34;;;;;;;0.77;0.77;;;2.50;76.20;;;1.60;64.54;94787.09;5060046;28;20530;-37
2023/01/21 01:16:01;;;;;;;0.70;0.70;;;2.50;76.20;;;1.61;64.45;94790.47;4992290;28;20206;-39
2023/01/21 01:18:32;;;;;;;0.80;0.80;;;2.50;76.20;;;1.62;63.98;94788.72;5059242;28;20206;-39
2023/01/21 01:21:00;;;;;;;0.80;0.80;;;2.50;76.30;;;1.59;64.55;94790.63;5059664;28;20582;-39
2023/01/21 01:23:27;;;;;;;0.80;0.80;;;2.40;76.30;;;1.59;64.14;94782.06;4992624;28;20208;-40
2023/01/21 01:26:01;;;;;;;0.80;0.80;;;2.40;76.40;;;1.58;64.53;94790.75;5059595;28;20238;-39
2023/01/21 01:28:29;;;;;;;0.70;0.70;;;2.40;76.30;;;1.57;64.79;94795.09;4992808;28;20193;-38
2023/01/21 01:30:58;;;;;;;0.75;0.75;;;2.40;76.40;;;1.58;64.75;94790.75;4992514;28;20213;-39
2023/01/21 01:33:26;;;;;;;0.80;0.80;;;2.40;76.40;;;1.56;64.64;94784.91;4992750;28;20202;-39
2023/01/21 01:35:53;;;;;;;0.85;0.85;;;2.40;76.40;;;1.55;64.34;94780.69;4992546;28;20213;-34
2023/01/21 01:38:21;;;;;;;0.80;0.80;;;2.40;76.40;;;1.53;64.84;94788.59;4992769;28;20255;-34
2023/01/21 01:40:51;;;;;;;0.80;0.80;;;2.40;76.40;;;1.54;64.69;94784.25;5059841;28;20197;-39
2023/01/21 01:43:48;;;;;;;0.90;0.90;;;2.50;76.50;;;1.52;64.74;94784.38;4992627;28;20570;-40
2023/01/21 01:46:15;;;;;;;0.80;0.80;;;2.40;76.60;;;1.52;64.87;94784.38;5001141;28;20688;-38
2023/01/21 01:48:47;;;;;;;0.80;0.80;;;2.30;76.60;;;1.50;65.12;94781.13;4992397;28;20209;-37
2023/01/21 01:51:20;;;;;;;0.80;0.80;;;2.30;76.70;;;1.52;65.24;94781.78;5059157;28;20182;-39
2023/01/21 01:53:47;;;;;;;0.80;0.80;;;2.30;76.80;;;1.50;65.14;94778.53;5059366;28;20221;-38
2023/01/21 01:56:15;;;;;;;0.80;0.80;;;2.30;76.80;;;1.50;65.28;94782.88;5059277;28;20691;-38
2023/01/21 01:58:44;;;;;;;0.70;0.70;;;2.40;76.80;;;1.51;65.19;94785.31;4992219;28;20281;-39
2023/01/21 02:01:11;;;;;;;0.90;0.90;;;2.30;77.50;;;1.50;65.50;94782.88;5042696;28;20202;-39
2023/01/21 02:03:44;;;;;;;0.80;0.80;;;2.40;76.90;;;1.50;65.33;94782.88;5059557;28;20615;-38
2023/01/21 02:06:14;;;;;;;0.80;0.80;;;2.40;76.90;;;1.48;65.48;94777.03;5057686;28;20187;-40
2023/01/21 02:08:44;;;;;;;0.80;0.80;;;2.20;77.00;;;1.46;65.56;94776.38;5059097;28;20194;-40
2023/01/21 02:11:14;;;;;;;0.90;0.90;;;2.20;77.20;;;1.47;65.33;94780.59;5058894;28;20285;-40
2023/01/21 02:13:47;;;;;;;0.80;0.80;;;2.20;77.30;;;1.44;65.52;94779.91;5059158;28;20190;-38
2023/01/21 02:16:36;;;;;;;0.90;0.90;;;2.20;77.40;;;1.42;65.46;94773.25;4992591;28;20642;-40
2023/01/21 02:19:59;;;;;;;0.80;0.80;;;2.10;77.40;;;1.40;65.56;94765.66;5059425;28;20182;-40
2023/01/21 02:22:36;;;;;;;0.70;0.70;;;2.10;77.50;;;1.36;65.52;94772.03;4991949;28;20517;-36
2023/01/21 02:25:52;;;;;;;0.77;0.77;;;2.00;77.60;;;1.34;65.21;94763.59;4991943;28;20187;-39
2023/01/21 02:28:43;;;;;;;0.70;0.70;;;2.10;77.80;;;1.34;65.85;94762.78;4991889;28;20659;-39
2023/01/21 02:31:58;;;;;;;0.70;0.70;;;2.10;77.70;;;1.32;65.62;94759.50;4995405;28;20578;-40
2023/01/21 02:35:00;;;;;;;0.65;0.65;;;2.10;77.60;;;1.33;65.57;94766.31;5062650;28;20182;-38
2023/01/21 02:37:45;;;;;;;0.90;0.90;;;2.00;77.60;;;1.31;65.88;94763.03;4995155;28;20190;-39
2023/01/21 02:40:36;;;;;;;0.80;0.80;;;2.00;77.60;;;1.31;65.74;94768.22;4995226;28;20197;-38
2023/01/21 02:43:49;;;;;;;0.80;0.80;;;2.10;77.70;;;1.32;65.72;94760.34;5062566;28;20174;-36
2023/01/21 02:46:25;;;;;;;0.80;0.80;;;2.00;77.70;;;1.30;65.70;94759.66;5029697;28;20217;-40
2023/01/21 02:49:01;;;;;;;0.70;0.70;;;2.10;77.60;;;1.28;66.05;94764.97;4995002;28;20182;-37
2023/01/21 02:51:28;;;;;;;0.70;0.70;;;2.00;77.70;;;1.32;66.28;94755.19;5061979;28;20204;-39
2023/01/21 02:53:55;;;;;;;0.80;0.80;;;2.00;77.60;;;1.32;66.16;94755.19;5062905;28;20277;-39
2023/01/21 02:56:25;;;;;;;0.80;0.80;;;2.00;77.70;;;1.34;65.91;94758.41;4995368;28;20309;-39
2023/01/21 02:59:02;;;;;;;0.80;0.80;;;2.10;77.80;;;1.32;65.98;94754.34;5062050;28;20186;-37
2023/01/21 03:02:12;;;;;;;0.80;0.80;;;2.00;77.70;;;1.33;65.40;94756.81;4994703;28;20220;-38
2023/01/21 03:05:17;;;;;;;0.80;0.80;;;2.00;77.70;;;1.30;65.96;94756.28;5061973;28;20190;-37
2023/01/21 03:08:03;;;;;;;0.80;0.80;;;2.00;77.60;;;1.28;65.54;94757.22;4994722;28;20208;-39
2023/01/21 03:10:48;;;;;;;0.80;0.80;;;2.00;77.50;;;1.26;65.85;94759.13;4994693;28;20187;-38
2023/01/21 03:19:05;;;;;;;0.80;0.80;;;2.00;77.50;;;1.25;65.72;94752.31;5051406;28;20228;-36
2023/01/21 03:21:34;;;;;;;0.80;0.80;;;2.10;77.70;;;1.29;65.58;94758.03;5060690;28;20205;-37
2023/01/21 03:24:02;;;;;;;0.70;0.70;;;2.10;77.50;;;1.28;65.84;94754.63;5061654;28;20205;-33
2023/01/21 03:26:39;;;;;;;0.80;0.80;;;2.10;77.40;;;1.30;65.85;94753.69;5061724;28;20238;-34
2023/01/21 03:29:14;;;;;;;0.90;0.90;;;2.00;77.30;;;1.30;65.44;94744.16;5061767;28;20206;-35
2023/01/21 03:31:45;;;;;;;0.80;0.80;;;2.00;77.40;;;1.27;65.49;94749.63;5044975;28;20182;-36
2023/01/21 03:34:15;;;;;;;0.70;0.70;;;2.00;77.40;;;1.26;65.76;94753.16;5045382;28;20218;-39
2023/01/21 03:36:56;;;;;;;0.80;0.80;;;1.80;77.40;;;1.20;65.54;94757.09;5061794;28;20228;-38
2023/01/21 03:39:52;;;;;;;0.80;0.80;;;1.80;77.70;;;1.18;65.55;94759.00;5061508;28;20186;-37
2023/01/21 03:42:20;;;;;;;0.80;0.80;;;1.80;77.60;;;1.19;65.68;94752.06;4977161;28;20194;-39
2023/01/21 03:44:47;;;;;;;0.70;0.70;;;1.80;77.50;;;1.20;65.48;94753.72;5061257;28;20199;-38
2023/01/21 03:47:33;;;;;;;0.70;0.70;;;1.80;77.40;;;1.16;65.14;94749.75;4961127;28;20525;-37
2023/01/21 03:50:10;;;;;;;0.80;0.80;;;1.70;77.70;;;1.15;65.37;94745.53;5061110;28;20273;-39
2023/01/21 03:52:43;;;;;;;0.80;0.80;;;1.70;77.70;;;1.13;65.37;94737.13;5061160;28;20185;-39
2023/01/21 03:55:13;;;;;;;0.70;0.70;;;1.50;77.50;;;1.10;65.21;94740.81;5060861;28;20226;-39
2023/01/21 03:57:40;;;;;;;0.80;0.80;;;1.40;77.50;;;1.06;65.52;94739.44;4977084;28;20190;-39
2023/01/21 04:00:09;;;;;;;0.70;0.70;;;1.40;77.80;;;1.03;65.63;94745.69;4993887;28;20202;-38
2023/01/21 04:02:36;;;;;;;0.80;0.80;;;1.40;78.00;;;1.02;65.76;94753.59;5060802;28;20190;-39
2023/01/21 04:05:03;;;;;;;0.70;0.70;;;1.40;78.00;;;1.02;65.76;94748.41;4993852;28;20193;-38
2023/01/21 04:07:30;;;;;;;0.80;0.80;;;1.40;77.90;;;1.00;65.84;94747.72;4993847;28;20198;-36
2023/01/21 04:09:57;;;;;;;0.90;0.90;;;1.50;77.90;;;0.98;65.76;94750.44;4993811;28;20194;-37
2023/01/21 04:12:24;;;;;;;0.80;0.80;;;1.60;77.90;;;1.00;65.84;94745.16;4993620;28;20187;-37
2023/01/21 04:14:52;;;;;;;0.80;0.80;;;1.60;77.70;;;1.00;65.32;94748.56;4993772;28;20220;-39
2023/01/21 04:17:19;;;;;;;0.75;0.75;;;1.50;77.60;;;0.98;65.78;94741.88;4993625;28;20305;-38
2023/01/21 04:19:46;;;;;;;0.80;0.80;;;1.50;77.70;;;0.97;65.74;94745.44;5061113;28;20207;-35
2023/01/21 04:22:13;;;;;;;0.80;0.80;;;1.50;77.50;;;0.97;65.84;94748.81;4993560;28;20558;-37
2023/01/21 04:24:40;;;;;;;0.80;0.80;;;1.60;77.60;;;0.98;65.76;94752.19;4993806;28;20190;-35
2023/01/21 04:27:07;;;;;;;0.70;0.70;;;1.60;77.50;;;0.99;65.23;94749.50;4993580;28;20249;-38
2023/01/21 04:29:34;;;;;;;0.80;0.80;;;1.60;77.30;;;1.00;65.25;94755.47;4993505;28;20198;-32
2023/01/21 04:32:02;;;;;;;0.80;0.80;;;1.50;77.10;;;0.95;65.44;94754.13;4993334;28;20198;-31
2023/01/21 04:34:29;;;;;;;0.80;0.80;;;1.60;77.40;;;0.97;65.09;94750.59;4993398;28;20194;-31
2023/01/21 04:36:56;;;;;;;0.90;0.90;;;1.60;77.40;;;0.95;65.32;94748.13;4993290;28;20214;-32
2023/01/21 04:39:23;;;;;;;0.80;0.80;;;1.60;77.30;;;0.92;65.87;94746.63;4993343;28;20194;-31
2023/01/21 04:41:50;;;;;;;0.80;0.80;;;1.60;78.10;;;0.93;65.79;94742.31;4993255;28;20202;-31
2023/01/21 04:44:17;;;;;;;0.80;0.80;;;1.50;77.30;;;0.91;65.60;94737.25;5043540;28;20198;-31
2023/01/21 04:46:44;;;;;;;0.80;0.80;;;1.40;77.30;;;0.90;65.42;94742.56;4993274;28;20202;-31
2023/01/21 04:49:11;;;;;;;0.80;0.80;;;1.50;77.50;;;0.90;65.34;94747.72;4993298;28;20217;-31
2023/01/21 04:51:39;;;;;;;0.70;0.70;;;1.50;77.50;;;0.89;65.59;94743.50;4992551;28;20284;-31
2023/01/21 04:54:06;;;;;;;0.70;0.70;;;1.60;77.50;;;0.90;65.42;94740.78;4993701;28;20259;-31
2023/01/21 04:56:32;;;;;;;0.70;0.70;;;1.50;77.20;;;0.88;65.74;94745.28;4993240;28;20252;-31
2023/01/21 04:59:00;;;;;;;0.80;0.80;;;1.50;77.40;;;0.86;65.67;94748.97;4993038;28;20198;-31
2023/01/21 05:01:27;;;;;;;0.80;0.80;;;1.50;77.40;;;0.84;65.28;94751.66;4992861;28;20198;-31
2023/01/21 05:03:54;;;;;;;0.90;0.90;;;1.50;77.20;;;0.84;65.71;94753.44;5059951;28;20202;-31
2023/01/21 05:06:21;;;;;;;0.70;0.70;;;1.50;77.10;;;0.84;65.48;94759.41;4992106;28;20234;-31
2023/01/21 05:08:48;;;;;;;0.80;0.80;;;1.40;77.10;;;0.84;65.13;94761.19;4993017;28;20668;-31
2023/01/21 05:11:18;;;;;;;0.70;0.70;;;1.50;77.30;;;0.85;65.07;94760.25;5059758;28;20645;-31
2023/01/21 05:13:45;;;;;;;0.80;0.80;;;1.50;77.00;;;0.83;65.11;94759.56;4993018;28;20198;-32
2023/01/21 05:16:13;;;;;;;0.80;0.80;;;1.50;77.00;;;0.81;65.34;94754.53;5043740;28;20241;-31
2023/01/21 05:18:40;;;;;;;0.70;0.70;;;1.50;76.80;;;0.79;65.33;94749.50;4992695;28;20744;-31
2023/01/21 05:21:08;;;;;;;0.90;0.90;;;1.50;77.40;;;0.81;64.83;94751.94;4992588;28;20190;-31
2023/01/21 05:23:34;;;;;;;0.88;0.88;;;1.40;76.50;;;0.76;65.41;94760.09;4992771;28;20198;-31
2023/01/21 05:26:02;;;;;;;0.70;0.70;;;1.40;76.80;;;0.74;65.06;94756.03;4992528;28;20234;-31
2023/01/21 05:28:29;;;;;;;0.70;0.70;;;1.40;76.80;;;0.74;64.86;94754.25;4992655;28;20657;-31
2023/01/21 05:31:01;;;;;;;0.80;0.80;;;1.50;76.80;;;0.72;65.06;94768.25;4992601;28;20206;-31
2023/01/21 05:33:33;;;;;;;0.80;0.80;;;1.40;76.70;;;0.69;65.22;94764.16;4992707;28;20570;-31
2023/01/21 05:36:02;;;;;;;0.80;0.80;;;1.30;76.50;;;0.67;64.74;94758.31;5059897;28;20240;-36
2023/01/21 05:38:29;;;;;;;0.80;0.80;;;1.30;76.80;;;0.67;65.18;94762.66;5059591;28;20509;-37
2023/01/21 05:41:00;;;;;;;0.80;0.80;;;1.20;76.60;;;0.66;64.91;94754.13;5076353;28;20231;-39
2023/01/21 05:43:28;;;;;;;0.70;0.70;;;1.20;76.70;;;0.64;64.70;94768.91;5043445;28;20194;-39
2023/01/21 05:45:55;;;;;;;0.70;0.70;;;1.30;76.80;;;0.64;64.76;94774.88;5059330;28;20634;-35
2023/01/21 05:48:23;;;;;;;0.90;0.90;;;1.30;76.40;;;0.63;64.80;94757.78;4992418;28;20224;-37
2023/01/21 05:50:50;;;;;;;0.70;0.70;;;1.30;76.40;;;0.59;64.80;94771.91;5059979;28;20206;-38
2023/01/21 05:53:18;;;;;;;0.70;0.70;;;1.30;76.70;;;0.58;65.10;94785.75;5059228;28;20205;-31
2023/01/21 05:55:45;;;;;;;0.80;0.80;;;1.30;76.70;;;0.58;64.79;94775.41;4992286;28;20221;-34
2023/01/21 05:58:13;;;;;;;0.80;0.80;;;1.40;76.70;;;0.58;64.94;94778.00;5042979;28;20194;-31
2023/01/21 06:00:40;;;;;;;0.70;0.70;;;1.40;76.60;;;0.59;64.75;94787.38;4992271;28;20633;-37
2023/01/21 06:03:08;;;;;;;0.70;0.70;;;1.40;76.40;;;0.59;64.93;94794.31;4992429;28;20582;-36
2023/01/21 06:05:35;;;;;;;0.70;0.70;;;1.40;76.40;;;0.57;64.71;94797.00;4995232;28;20293;-36
2023/01/21 06:08:02;;;;;;;0.80;0.80;;;1.30;76.40;;;0.57;64.89;94802.19;4995790;28;20645;-39
2023/01/21 06:10:29;;;;;;;0.70;0.70;;;1.40;76.40;;;0.56;64.95;94805.72;5046643;28;20194;-33
2023/01/21 06:12:57;;;;;;;0.70;0.70;;;1.40;76.50;;;0.58;64.73;94798.66;4995593;28;20539;-38
2023/01/21 06:15:24;;;;;;;0.70;0.70;;;1.40;76.40;;;0.59;65.07;94802.06;5063806;28;20198;-38
2023/01/21 06:17:52;;;;;;;0.70;0.70;;;1.50;76.20;;;0.57;65.18;94807.34;4995523;28;20305;-34
2023/01/21 06:20:20;;;;;;;0.70;0.70;;;1.40;76.30;;;0.57;64.67;94801.38;4995746;28;20626;-38
2023/01/21 06:22:47;;;;;;;0.90;0.90;;;1.40;76.40;;;0.60;64.78;94821.75;5062651;28;20205;-36
2023/01/21 06:25:14;;;;;;;0.70;0.70;;;1.40;76.40;;;0.59;64.59;94820.13;4995712;28;21247;-36
2023/01/21 06:27:41;;;;;;;0.80;0.80;;;1.50;76.40;;;0.60;64.83;94820.00;4995806;28;20221;-37
2023/01/21 06:30:10;;;;;;;0.70;0.70;;;1.50;76.00;;;0.62;64.18;94828.44;5063189;28;20551;-38
2023/01/21 06:32:37;;;;;;;0.80;0.80;;;1.50;76.20;;;0.60;64.62;94827.72;4995395;28;20285;-38
2023/01/21 06:35:05;;;;;;;0.70;0.70;;;1.50;76.10;;;0.60;64.61;94827.72;5062612;28;20221;-38
2023/01/21 06:37:32;;;;;;;0.80;0.80;;;1.50;76.10;;;0.60;64.41;94824.34;5062443;28;20233;-39
2023/01/21 06:40:00;;;;;;;0.80;0.80;;;1.50;76.10;;;0.59;64.33;94826.09;5062641;28;20236;-32
2023/01/21 06:42:27;;;;;;;0.80;0.80;;;1.50;76.00;;;0.59;64.38;94826.09;4995246;28;20229;-35
2023/01/21 06:44:54;;;;;;;0.80;0.80;;;1.40;76.00;;;0.59;64.34;94825.28;5063244;28;20202;-39
2023/01/21 06:47:21;;;;;;;0.80;0.80;;;1.50;76.20;;;0.59;64.55;94820.13;4994261;28;20263;-39
2023/01/21 06:49:48;;;;;;;0.70;0.70;;;1.40;76.10;;;0.59;64.38;94825.28;4995118;28;20194;-38
2023/01/21 06:52:15;;;;;;;0.80;0.80;;;1.40;76.20;;;0.56;64.50;94823.78;4994989;28;20202;-40
2023/01/21 06:54:43;;;;;;;0.80;0.80;;;1.40;76.20;;;0.57;64.43;94824.59;5062252;28;20238;-35
2023/01/21 06:57:10;;;;;;;0.80;0.80;;;1.40;76.30;;;0.58;64.58;94831.41;4994931;28;20214;-38
2023/01/21 06:59:38;;;;;;;0.80;0.80;;;1.40;76.20;;;0.57;64.09;94834.91;4994953;28;20656;-35
2023/01/21 07:02:06;;;;;;;0.73;0.73;;;1.30;76.10;;;0.54;64.52;94837.75;4994808;28;20205;-38
2023/01/21 07:04:33;;;;;;;0.80;0.80;;;1.30;76.30;;;0.55;64.14;94842.81;4962496;28;20190;-36
2023/01/21 07:07:00;;;;;;;0.70;0.70;;;1.40;76.30;;;0.56;64.53;94846.19;5061903;28;20195;-35
2023/01/21 07:09:28;;;;;;;0.70;0.70;;;1.30;76.10;;;0.55;64.48;94845.38;4995495;28;20689;-39
2023/01/21 07:11:55;;;;;;;0.70;0.70;;;1.30;76.30;;;0.55;64.82;94858.28;5062302;28;20532;-34
2023/01/21 07:14:22;;;;;;;0.70;0.70;;;1.40;76.30;;;0.55;64.28;94866.03;4994630;28;20604;-38
2023/01/21 07:16:49;;;;;;;0.77;0.77;;;1.40;76.30;;;0.56;64.38;94866.84;5062262;28;20715;-36
2023/01/21 07:19:16;;;;;;;0.70;0.70;;;1.40;76.20;;;0.55;64.62;94867.78;5061751;28;20194;-40
2023/01/21 07:21:43;;;;;;;0.80;0.80;;;1.30;76.60;;;0.53;64.36;94864.53;5061658;28;20210;-40
2023/01/21 07:24:10;;;;;;;0.80;0.80;;;1.30;76.20;;;0.52;64.57;94858.53;4994916;28;20213;-40
2023/01/21 07:26:37;;;;;;;0.70;0.70;;;1.30;76.20;;;0.51;64.30;94859.47;4994555;28;20221;-38
2023/01/21 07:29:05;;;;;;;0.80;0.80;;;1.20;76.20;;;0.47;64.71;94860.69;4994858;28;20201;-35
2023/01/21 07:31:32;;;;;;;0.70;0.70;;;1.20;76.30;;;0.50;64.62;94860.44;4994838;28;20210;-37
2023/01/21 07:34:00;;;;;;;0.70;0.70;;;1.20;76.40;;;0.50;64.91;94868.19;4994762;28;20202;-39
2023/01/21 07:36:27;;;;;;;0.80;0.80;;;1.30;76.50;;;0.52;64.71;94863.69;4994307;28;20222;-39
2023/01/21 07:38:54;;;;;;;0.80;0.80;;;1.30;76.40;;;0.52;65.10;94873.22;4994263;28;20218;-38
2023/01/21 07:41:22;;;;;;;0.80;0.80;;;1.30;76.40;;;0.51;65.34;94867.22;4994672;28;20194;-37
2023/01/21 07:43:50;;;;;;;0.70;0.70;;;1.30;76.40;;;0.52;64.79;94858.53;5061109;28;20203;-36
2023/01/21 07:46:19;;;;;;;0.80;0.80;;;1.30;76.30;;;0.54;64.66;94861.81;5061595;28;20287;-37
2023/01/21 07:48:50;;;;;;;0.90;0.90;;;1.20;76.40;;;0.56;64.76;94870.25;4994291;28;20198;-38
2023/01/21 07:51:21;;;;;;;0.80;0.80;;;1.30;76.50;;;0.58;64.86;94867.53;4994457;28;20186;-38
2023/01/21 07:53:49;;;;;;;0.80;0.80;;;1.20;76.40;;;0.59;64.48;94869.97;4993059;28;20198;-37
2023/01/21 07:56:17;;;;;;;0.73;0.73;;;1.30;76.60;;;0.63;64.64;94868.78;5045197;28;20229;-38
2023/01/21 07:58:45;;;;;;;0.70;0.70;;;1.30;76.40;;;0.64;64.99;94859.25;4993242;28;20204;-35
2023/01/21 08:01:13;;;;;;;0.80;0.80;;;1.40;76.50;;;0.69;64.38;94870.00;4994048;28;20194;-38
2023/01/21 08:03:41;;;;;;;0.70;0.70;;;1.40;76.50;;;0.70;65.04;94876.78;4994062;28;20190;-38
2023/01/21 08:06:08;;;;;;;0.80;0.80;;;1.40;76.50;;;0.76;64.99;94872.88;4993923;28;20203;-38
2023/01/21 08:08:35;;;;;;;0.70;0.70;;;1.50;77.20;;;0.79;64.81;94882.94;4993883;28;20199;-39
2023/01/21 08:11:02;;;;;;;0.80;0.80;;;1.60;76.50;;;0.82;64.87;94879.25;5061364;28;20194;-38
2023/01/21 08:13:30;;;;;;;0.70;0.70;;;1.60;76.40;;;0.84;64.77;94888.50;5060721;28;20304;-33
2023/01/21 08:15:57;;;;;;;0.80;0.80;;;1.60;76.20;;;0.88;64.31;94879.56;4993699;28;20217;-37
2023/01/21 08:18:24;;;;;;;0.70;0.70;;;1.60;76.10;;;0.89;64.87;94881.19;4993701;28;20231;-39
2023/01/21 08:20:57;;;;;;;0.80;0.80;;;1.60;75.90;;;0.91;64.42;94884.44;4993742;28;20186;-35
2023/01/21 08:23:26;;;;;;;0.80;0.80;;;1.60;76.00;;;0.94;64.45;94889.34;5059633;28;20183;-39
2023/01/21 08:25:54;;;;;;;0.70;0.70;;;1.60;75.90;;;0.99;64.04;94888.97;4993966;28;20310;-37
2023/01/21 08:28:22;;;;;;;0.80;0.80;;;1.70;75.90;;;1.00;64.13;94898.34;5043720;28;20202;-37
2023/01/21 08:30:49;;;;;;;0.70;0.70;;;1.60;75.70;;;0.99;64.19;94901.88;4976743;28;20195;-39
2023/01/21 08:33:17;;;;;;;0.77;0.77;;;1.60;75.90;;;1.02;64.24;94909.34;4993294;28;20194;-40
2023/01/21 08:35:45;;;;;;;0.80;0.80;;;1.70;75.90;;;1.05;64.52;94895.34;4993372;28;20714;-39
2023/01/21 08:38:12;;;;;;;0.70;0.70;;;1.70;75.60;;;1.06;64.23;94897.81;4993420;28;20237;-39
2023/01/21 08:40:39;;;;;;;0.70;0.70;;;1.70;75.70;;;1.06;64.33;94902.16;4993913;28;20572;-40
2023/01/21 08:43:08;;;;;;;0.70;0.70;;;1.80;75.80;;;1.08;64.03;94898.47;4992275;28;20634;-38
2023/01/21 08:45:35;;;;;;;0.70;0.70;;;1.80;75.60;;;1.09;64.03;94910.44;4991995;28;20194;-38
2023/01/21 08:48:03;;;;;;;0.70;0.70;;;1.80;75.70;;;1.13;64.18;94905.84;4975092;28;20572;-38
2023/01/21 08:50:30;;;;;;;0.70;0.70;;;1.90;75.70;;;1.17;63.97;94903.78;5058406;28;20202;-39
2023/01/21 08:52:57;;;;;;;0.80;0.80;;;1.90;75.60;;;1.19;64.03;94907.06;4993702;28;20709;-38
2023/01/21 08:55:25;;;;;;;0.73;0.73;;;1.90;75.70;;;1.18;63.99;94906.25;4975860;28;20626;-38
2023/01/21 08:57:54;;;;;;;0.70;0.70;;;1.90;75.50;;;1.19;64.05;94905.28;5049406;28;20542;-35
2023/01/21 09:00:22;;;;;;;0.70;0.70;;;1.90;75.40;;;1.17;64.25;94909.75;4983077;28;20299;-41
2023/01/21 09:02:50;;;;;;;0.65;0.65;;;2.00;75.50;;;1.19;64.14;94902.72;4973880;28;20526;-37
2023/01/21 09:05:18;;;;;;;0.70;0.70;;;1.90;75.30;;;1.22;63.95;94914.53;4973812;28;20568;-36
2023/01/21 09:07:46;;;;;;;0.80;0.80;;;2.00;75.40;;;1.22;63.87;94915.38;5040217;28;20194;-38
2023/01/21 09:10:59;;;;;;;0.90;0.90;;;2.00;75.40;;;1.26;63.95;94911.56;4976191;28;20194;-37
2023/01/21 09:13:08;;;;;;;0.80;0.80;;;1.90;75.30;;;1.31;63.80;94911.16;5049024;28;20734;-39
2023/01/21 09:15:40;;;;;;;0.80;0.80;;;2.00;75.50;;;1.35;63.72;94925.44;5060154;28;20227;-38
2023/01/21 09:18:08;;;;;;;0.70;0.70;;;1.90;75.40;;;1.37;64.14;94925.31;4993512;28;20273;-34
2023/01/21 09:20:36;;;;;;;0.80;0.80;;;2.00;75.40;;;1.38;64.40;94932.09;4992897;28;20228;-39
2023/01/21 09:23:22;;;;;;;0.70;0.70;;;2.00;75.70;;;1.43;64.09;94923.00;4979781;28;20619;-37
2023/01/21 09:26:12;;;;;;;0.80;0.80;;;2.10;75.60;;;1.47;64.14;94923.53;5045237;28;20248;-34
2023/01/21 09:28:42;;;;;;;0.70;0.70;;;2.00;74.90;;;1.48;63.79;94920.00;5058898;28;20205;-37
2023/01/21 09:31:16;;;;;;;0.70;0.70;;;2.10;75.60;;;1.53;63.63;94919.63;4977580;28;20533;-37
2023/01/21 09:33:47;;;;;;;0.88;0.88;;;2.20;75.80;;;1.55;63.43;94923.69;4993121;28;20186;-38
2023/01/21 09:36:18;;;;;;;0.80;0.80;;;2.10;75.40;;;1.59;63.70;94919.06;4993554;28;20255;-36
2023/01/21 09:38:47;;;;;;;0.80;0.80;;;2.20;75.60;;;1.63;63.80;94917.84;4995251;28;20204;-40
2023/01/21 09:41:24;;;;;;;0.80;0.80;;;2.20;75.40;;;1.66;63.96;94920.16;5064606;28;20516;-38
2023/01/21 09:44:12;;;;;;;0.80;0.80;;;2.30;75.50;;;1.68;64.14;94915.66;5059645;28;20240;-38
2023/01/21 09:46:44;;;;;;;0.82;0.82;;;2.30;75.20;;;1.71;63.65;94906.78;5044757;28;20610;-39
2023/01/21 09:49:38;;;;;;;0.77;0.77;;;2.30;75.50;;;1.75;63.67;94913.34;5044826;28;20244;-37
2023/01/21 09:52:24;;;;;;;0.80;0.80;;;2.30;75.40;;;1.76;63.77;94897.69;4977091;28;20194;-38
2023/01/21 09:54:52;;;;;;;0.80;0.80;;;2.40;75.30;;;1.78;64.29;94907.88;5066459;28;20183;-38
2023/01/21 09:57:58;;;;;;;0.70;0.70;;;2.40;75.40;;;1.85;63.66;94897.81;5019679;28;20217;-37
2023/01/21 10:01:05;;;;;;;0.80;0.80;;;2.50;75.50;;;1.90;63.93;94901.63;5000166;28;20222;-37
2023/01/21 10:03:39;;;;;;;0.80;0.80;;;2.50;74.20;;;1.90;63.67;94895.63;4990723;28;20194;-37
2023/01/21 10:06:21;;;;;;;0.70;0.70;;;2.50;75.10;;;1.94;63.49;94894.38;5064522;28;20194;-37
2023/01/21 10:09:14;;;;;;;0.70;0.70;;;2.40;74.70;;;1.97;63.47;94898.47;5064117;28;20281;-38
2023/01/21 10:12:12;;;;;;;0.80;0.80;;;2.50;75.30;;;2.04;63.78;94897.78;4983211;28;20270;-35
2023/01/21 10:15:11;;;;;;;0.80;0.80;;;2.50;74.80;;;2.10;63.40;94899.00;4984220;28;20641;-36
2023/01/21 10:17:51;;;;;;;0.65;0.65;;;2.60;75.00;;;2.15;63.89;94898.56;5043675;28;20227;-35
2023/01/21 10:20:35;;;;;;;0.80;0.80;;;2.60;74.80;;;2.16;63.25;94903.63;5056877;28;20232;-34
2023/01/21 10:23:28;;;;;;;0.80;0.80;;;2.60;74.70;;;2.19;63.53;94892.16;4995690;28;20182;-38
2023/01/21 10:25:58;;;;;;;0.70;0.70;;;2.60;74.10;;;2.20;63.20;94907.53;4994573;28;20260;-37
2023/01/21 10:28:29;;;;;;;0.80;0.80;;;2.60;74.10;;;2.21;62.91;94908.34;5063061;28;20198;-36
2023/01/21 10:31:15;;;;;;;0.70;0.70;;;2.60;74.80;;;2.21;63.10;94906.59;4995636;28;20199;-37
2023/01/21 10:33:42;;;;;;;0.70;0.70;;;2.70;74.70;;;2.22;63.10;94905.63;5062701;28;20186;-37
2023/01/21 10:36:53;;;;;;;0.70;0.70;;;2.70;74.60;;;2.21;62.78;94903.16;4995525;28;20516;-39
2023/01/21 10:39:26;;;;;;;0.80;0.80;;;2.70;74.90;;;2.21;62.99;94905.75;4995629;28;20527;-39
2023/01/21 10:42:32;;;;;;;0.80;0.80;;;2.70;74.20;;;2.18;63.43;94899.09;4995977;28;20189;-38
2023/01/21 10:45:11;;;;;;;0.80;0.80;;;2.70;74.50;;;2.22;62.95;94900.47;5062507;28;20193;-39
2023/01/21 10:48:11;;;;;;;0.70;0.70;;;2.70;73.90;;;2.20;62.48;94892.03;5063480;28;20190;-37
2023/01/21 10:50:55;;;;;;;0.70;0.70;;;2.70;74.30;;;2.22;62.91;94890.13;4994325;28;20190;-36
2023/01/21 10:54:02;;;;;;;0.80;0.80;;;2.70;74.60;;;2.25;62.76;94891.59;4995761;28;20198;-36
2023/01/21 10:56:42;;;;;;;0.75;0.75;;;2.60;74.00;;;2.27;63.16;94887.13;5063278;28;20255;-39
2023/01/21 10:59:16;;;;;;;0.70;0.70;;;2.70;74.80;;;2.34;63.20;94895.13;4978593;28;20179;-37
2023/01/21 11:02:02;;;;;;;0.70;0.70;;;2.80;74.70;;;2.39;63.14;94898.09;5062715;28;20580;-31